createdAt,value
2023-02-16T00:01:18.062Z,5.20
2023-02-16T00:03:52.361Z,5.20
2023-02-16T00:06:26.493Z,5.30
2023-02-16T00:11:53.024Z,5.20
2023-02-16T00:14:29.485Z,5.10
2023-02-16T00:17:02.589Z,5.00
2023-02-16T00:19:37.991Z,5.00
2023-02-16T00:22:11.732Z,4.90
2023-02-16T00:24:43.627Z,4.60
2023-02-16T00:27:18.960Z,4.50
2023-02-16T00:29:51.043Z,4.50
2023-02-16T00:32:24.268Z,4.50
2023-02-16T00:34:56.177Z,4.60
2023-02-16T00:37:28.902Z,4.50
2023-02-16T00:40:03.770Z,4.30
2023-02-16T00:42:38.086Z,4.20
2023-02-16T00:45:19.926Z,4.50
2023-02-16T00:47:54.120Z,4.50
2023-02-16T00:50:33.173Z,4.60
2023-02-16T00:53:05.914Z,4.50
2023-02-16T00:55:40.207Z,4.60
2023-02-16T00:58:25.984Z,4.60
2023-02-16T01:01:09.490Z,4.60
2023-02-16T01:03:42.171Z,4.60
2023-02-16T01:06:33.397Z,4.70
2023-02-16T01:09:34.242Z,4.90
2023-02-16T01:12:17.479Z,4.90
2023-02-16T01:14:53.710Z,5.00
2023-02-16T01:17:28.059Z,5.10
2023-02-16T01:20:00.454Z,5.10
2023-02-16T01:22:33.816Z,5.00
2023-02-16T01:25:06.399Z,5.10
2023-02-16T01:27:40.387Z,5.20
2023-02-16T01:30:20.771Z,5.20
2023-02-16T01:32:53.994Z,5.30
2023-02-16T01:35:34.349Z,5.30
2023-02-16T01:38:06.790Z,5.30
2023-02-16T01:40:46.512Z,5.40
2023-02-16T01:43:47.876Z,5.30
2023-02-16T01:46:52.804Z,5.60
2023-02-16T01:52:04.449Z,5.20
2023-02-16T01:54:44.907Z,5.10
2023-02-16T01:57:56.406Z,4.90
2023-02-16T02:00:53.649Z,4.80
2023-02-16T02:03:54.158Z,4.60
2023-02-16T02:06:35.232Z,4.60
2023-02-16T02:09:21.804Z,4.60
2023-02-16T02:12:13.353Z,4.70
2023-02-16T02:14:49.550Z,4.60
2023-02-16T02:17:25.040Z,4.60
2023-02-16T02:20:21.358Z,4.50
2023-02-16T02:23:31.915Z,4.40
2023-02-16T02:26:42.380Z,4.30
2023-02-16T02:29:47.312Z,4.40
2023-02-16T02:32:35.058Z,4.00
2023-02-16T02:35:38.363Z,4.10
2023-02-16T02:38:56.610Z,3.80
2023-02-16T02:42:05.046Z,3.80
2023-02-16T02:44:57.939Z,4.50
2023-02-16T02:47:44.891Z,4.50
2023-02-16T02:50:39.653Z,4.40
2023-02-16T02:53:15.405Z,4.40
2023-02-16T02:56:09.466Z,4.60
2023-02-16T02:59:00.466Z,4.70
2023-02-16T03:01:36.663Z,4.80
2023-02-16T03:04:12.324Z,4.70
2023-02-16T03:06:49.474Z,4.70
2023-02-16T03:09:21.599Z,4.80
2023-02-16T03:12:14.146Z,4.80
2023-02-16T03:14:52.125Z,4.90
2023-02-16T03:17:52.264Z,5.10
2023-02-16T03:20:43.209Z,5.10
2023-02-16T03:23:34.737Z,5.10
2023-02-16T03:26:26.018Z,5.20
2023-02-16T03:29:18.287Z,5.10
2023-02-16T03:31:52.776Z,5.00
2023-02-16T03:34:27.055Z,5.00
2023-02-16T03:37:01.226Z,5.10
2023-02-16T03:39:53.739Z,5.10
2023-02-16T03:42:25.696Z,5.20
2023-02-16T03:44:58.487Z,5.20
2023-02-16T03:47:30.401Z,5.20
2023-02-16T03:50:03.462Z,5.30
2023-02-16T03:52:35.383Z,5.40
2023-02-16T03:55:08.751Z,5.30
2023-02-16T04:00:14.710Z,5.20
2023-02-16T04:02:47.053Z,5.30
2023-02-16T04:05:20.046Z,5.30
2023-02-16T04:07:52.838Z,5.20
2023-02-16T04:12:58.276Z,4.80
2023-02-16T04:15:31.077Z,4.70
2023-02-16T04:18:03.655Z,4.70
2023-02-16T04:20:36.680Z,3.60
2023-02-16T04:25:41.725Z,4.90
2023-02-16T04:28:14.453Z,5.30
2023-02-16T04:30:46.426Z,5.60
2023-02-16T04:33:19.179Z,5.30
2023-02-16T04:35:51.152Z,5.30
2023-02-16T04:40:56.539Z,5.50
2023-02-16T04:43:29.240Z,5.40
2023-02-16T04:46:01.176Z,5.20
2023-02-16T04:48:33.916Z,5.10
2023-02-16T04:51:06.255Z,4.80
2023-02-16T04:53:39.091Z,4.40
2023-02-16T04:56:13.031Z,4.70
2023-02-16T04:58:44.947Z,4.70
2023-02-16T05:01:28.302Z,4.60
2023-02-16T05:04:00.751Z,3.90
2023-02-16T05:06:32.723Z,3.60
2023-02-16T05:09:06.980Z,4.40
2023-02-16T05:14:41.971Z,4.20
2023-02-16T05:17:24.203Z,4.20
2023-02-16T05:20:00.285Z,3.80
2023-02-16T05:22:35.530Z,3.50
2023-02-16T05:27:40.939Z,3.60
2023-02-16T05:30:15.076Z,3.80
2023-02-16T05:32:46.947Z,4.00
2023-02-16T05:35:20.647Z,3.90
2023-02-16T05:37:52.500Z,3.80
2023-02-16T05:40:25.575Z,3.80
2023-02-16T05:42:58.157Z,3.70
2023-02-16T05:45:30.879Z,3.50
2023-02-16T05:48:02.769Z,3.40
2023-02-16T05:53:07.732Z,3.50
2023-02-16T05:55:40.553Z,3.30
2023-02-16T05:58:12.415Z,3.20
2023-02-16T06:05:58.883Z,3.20
2023-02-16T06:08:33.316Z,3.50
2023-02-16T06:11:07.152Z,3.30
2023-02-16T06:16:12.586Z,3.20
2023-02-16T06:18:45.327Z,3.30
2023-02-16T06:21:17.242Z,3.30
2023-02-16T06:23:50.420Z,3.20
2023-02-16T06:26:22.742Z,3.20
2023-02-16T06:28:59.004Z,3.20
2023-02-16T06:31:31.518Z,3.40
2023-02-16T06:34:05.647Z,3.60
2023-02-16T06:39:14.403Z,3.80
2023-02-16T06:41:47.277Z,3.90
2023-02-16T06:44:19.251Z,4.00
2023-02-16T06:46:52.989Z,3.70
2023-02-16T06:49:27.725Z,3.50
2023-02-16T06:52:23.309Z,3.10
2023-02-16T06:57:28.466Z,2.80
2023-02-16T07:00:00.351Z,2.80
2023-02-16T07:02:32.936Z,2.80
2023-02-16T07:05:05.789Z,2.90
2023-02-16T07:07:39.629Z,3.00
2023-02-16T07:10:11.648Z,3.00
2023-02-16T07:15:20.410Z,3.20
2023-02-16T07:17:53.835Z,3.30
2023-02-16T07:20:26.929Z,3.30
2023-02-16T07:23:00.355Z,3.40
2023-02-16T07:28:10.147Z,3.60
2023-02-16T07:33:16.519Z,3.70
2023-02-16T07:35:48.534Z,3.90
2023-02-16T07:38:21.288Z,4.00
2023-02-16T07:40:53.178Z,4.10
2023-02-16T07:43:26.905Z,4.20
2023-02-16T07:48:53.714Z,4.30
2023-02-16T07:51:29.936Z,4.30
2023-02-16T07:54:02.902Z,4.60
2023-02-16T07:56:36.214Z,4.80
2023-02-16T08:04:15.235Z,5.80
2023-02-16T08:06:51.220Z,5.50
2023-02-16T08:09:23.781Z,5.50
2023-02-16T08:11:56.119Z,5.50
2023-02-16T08:14:31.612Z,5.50
2023-02-16T08:17:06.314Z,5.90
2023-02-16T08:19:39.894Z,6.20
2023-02-16T08:24:45.011Z,6.40
2023-02-16T08:27:17.328Z,6.40
2023-02-16T08:29:50.857Z,6.40
2023-02-16T08:32:22.859Z,6.40
2023-02-16T08:34:58.203Z,6.40
2023-02-16T08:40:24.872Z,6.60
2023-02-16T08:48:44.328Z,7.80
2023-02-16T08:51:39.156Z,8.70
2023-02-16T08:54:27.999Z,9.50
2023-02-16T08:57:22.150Z,10.20
2023-02-16T09:00:13.984Z,10.70
2023-02-16T09:02:47.029Z,11.20
2023-02-16T09:08:13.370Z,13.10
2023-02-16T09:10:45.843Z,13.70
2023-02-16T09:13:18.923Z,13.10
2023-02-16T09:15:51.588Z,13.70
2023-02-16T09:18:25.492Z,14.60
2023-02-16T09:20:57.456Z,14.50
2023-02-16T09:23:32.016Z,15.20
2023-02-16T09:26:07.370Z,16.10
2023-02-16T09:28:41.786Z,15.90
2023-02-16T09:31:25.909Z,15.80
2023-02-16T09:34:04.629Z,16.20
2023-02-16T09:36:38.299Z,16.30
2023-02-16T09:39:11.678Z,14.80
2023-02-16T09:42:05.827Z,14.30
2023-02-16T09:45:10.424Z,15.90
2023-02-16T09:47:45.952Z,16.30
2023-02-16T09:50:50.272Z,16.30
2023-02-16T09:53:32.842Z,16.70
2023-02-16T09:56:37.408Z,16.30
2023-02-16T09:59:41.572Z,17.40
2023-02-16T10:02:23.944Z,17.50
2023-02-16T10:05:22.312Z,17.20
2023-02-16T10:08:13.328Z,16.80
2023-02-16T10:11:04.054Z,16.40
2023-02-16T10:16:39.265Z,16.50
2023-02-16T10:19:26.768Z,16.10
2023-02-16T10:22:04.242Z,16.40
2023-02-16T10:25:03.788Z,16.70
2023-02-16T10:27:40.025Z,17.20
2023-02-16T10:30:17.206Z,17.40
2023-02-16T10:33:03.902Z,17.80
2023-02-16T10:35:57.096Z,18.20
2023-02-16T10:39:14.521Z,17.90
2023-02-16T10:42:02.357Z,18.00
2023-02-16T10:44:45.990Z,17.70
2023-02-16T10:47:34.901Z,17.20
2023-02-16T10:50:19.187Z,17.20
2023-02-16T10:53:15.234Z,16.50
2023-02-16T10:55:47.131Z,17.20
2023-02-16T10:58:27.319Z,16.60
2023-02-16T11:01:08.476Z,16.80
2023-02-16T11:03:50.272Z,16.30
2023-02-16T11:06:25.759Z,16.80
2023-02-16T11:09:02.274Z,16.40
2023-02-16T11:11:41.029Z,16.10
2023-02-16T11:14:25.299Z,16.90
2023-02-16T11:17:25.489Z,17.20
2023-02-16T11:20:05.715Z,16.40
2023-02-16T11:22:41.870Z,16.70
2023-02-16T11:25:27.509Z,17.20
2023-02-16T11:28:10.223Z,17.30
2023-02-16T11:30:43.945Z,16.90
2023-02-16T11:33:24.382Z,16.60
2023-02-16T11:38:37.390Z,17.00
2023-02-16T11:41:24.645Z,17.30
2023-02-16T11:43:58.371Z,17.30
2023-02-16T11:46:40.776Z,17.50
2023-02-16T11:49:41.349Z,18.10
2023-02-16T11:52:36.087Z,18.50
2023-02-16T11:55:33.899Z,18.40
2023-02-16T11:58:26.445Z,18.00
2023-02-16T12:01:37.101Z,18.20
2023-02-16T12:04:36.303Z,18.10
2023-02-16T12:08:06.929Z,18.00
2023-02-16T12:10:53.501Z,17.90
2023-02-16T12:14:07.109Z,17.20
2023-02-16T12:16:52.813Z,17.30
2023-02-16T12:19:38.918Z,17.70
2023-02-16T12:22:34.920Z,17.80
2023-02-16T12:29:38.352Z,16.30
2023-02-16T12:32:38.946Z,16.20
2023-02-16T12:35:22.242Z,16.30
2023-02-16T12:38:17.647Z,16.40
2023-02-16T12:44:42.445Z,15.70
2023-02-16T12:47:47.414Z,15.80
2023-02-16T12:50:25.355Z,15.80
2023-02-16T12:53:10.167Z,15.60
2023-02-16T12:55:59.606Z,15.60
2023-02-16T12:58:45.186Z,15.40
2023-02-16T13:01:25.570Z,15.20
2023-02-16T13:04:41.053Z,15.20
2023-02-16T13:07:32.925Z,15.20
2023-02-16T13:10:25.187Z,15.20
2023-02-16T13:13:11.825Z,15.30
2023-02-16T13:16:28.714Z,15.40
2023-02-16T13:19:01.918Z,15.60
2023-02-16T13:22:15.168Z,15.80
2023-02-16T13:25:24.152Z,16.00
2023-02-16T13:28:58.460Z,16.20
2023-02-16T13:32:06.718Z,16.10
2023-02-16T13:38:35.046Z,15.30
2023-02-16T13:41:53.279Z,15.20
2023-02-16T13:44:56.408Z,15.30
2023-02-16T13:47:38.366Z,15.40
2023-02-16T13:50:22.921Z,15.30
2023-02-16T13:52:59.519Z,15.00
2023-02-16T13:55:35.573Z,15.00
2023-02-16T13:58:29.569Z,14.90
2023-02-16T14:01:43.355Z,14.80
2023-02-16T14:04:28.040Z,14.80
2023-02-16T14:07:03.222Z,14.90
2023-02-16T14:09:39.481Z,15.00
2023-02-16T14:12:17.694Z,15.00
2023-02-16T14:14:53.067Z,15.00
2023-02-16T14:17:31.476Z,15.00
2023-02-16T14:20:16.158Z,14.90
2023-02-16T14:22:57.299Z,14.90
2023-02-16T14:25:38.202Z,14.90
2023-02-16T14:28:22.016Z,14.70
2023-02-16T14:31:00.626Z,14.80
2023-02-16T14:34:02.135Z,14.80
2023-02-16T14:39:12.613Z,14.80
2023-02-16T14:41:45.701Z,15.00
2023-02-16T14:44:38.608Z,14.90
2023-02-16T14:47:48.227Z,14.90
2023-02-16T14:50:34.550Z,15.00
2023-02-16T14:54:01.652Z,15.00
2023-02-16T14:56:46.174Z,14.90
2023-02-16T14:59:37.128Z,14.80
2023-02-16T15:02:30.497Z,14.90
2023-02-16T15:05:22.392Z,14.80
2023-02-16T15:08:23.916Z,14.70
2023-02-16T15:10:58.423Z,14.70
2023-02-16T15:13:33.433Z,14.70
2023-02-16T15:16:24.742Z,14.60
2023-02-16T15:21:30.668Z,14.50
2023-02-16T15:29:34.627Z,14.40
2023-02-16T15:37:36.899Z,14.40
2023-02-16T15:40:25.481Z,14.40
2023-02-16T15:43:16.889Z,14.30
2023-02-16T15:45:53.089Z,14.30
2023-02-16T15:48:32.022Z,14.20
2023-02-16T15:51:29.356Z,14.30
2023-02-16T15:54:12.456Z,14.30
2023-02-16T15:56:48.823Z,14.20
2023-02-16T15:59:48.174Z,14.20
2023-02-16T16:02:33.529Z,14.20
2023-02-16T16:08:18.513Z,14.20
2023-02-16T16:10:54.457Z,14.20
2023-02-16T16:13:30.981Z,14.20
2023-02-16T16:16:04.707Z,14.10
2023-02-16T16:18:46.519Z,14.00
2023-02-16T16:21:29.015Z,14.00
2023-02-16T16:24:06.777Z,14.00
2023-02-16T16:26:55.658Z,14.00
2023-02-16T16:29:39.251Z,14.00
2023-02-16T16:32:28.624Z,14.00
2023-02-16T16:37:36.334Z,14.00
2023-02-16T16:40:33.705Z,13.90
2023-02-16T16:43:15.271Z,13.90
2023-02-16T16:46:16.506Z,13.90
2023-02-16T16:48:52.716Z,13.90
2023-02-16T16:51:27.444Z,13.80
2023-02-16T16:54:31.437Z,13.80
2023-02-16T16:57:15.966Z,13.80
2023-02-16T16:59:48.741Z,13.80
2023-02-16T17:02:20.652Z,13.80
2023-02-16T17:04:53.437Z,13.80
2023-02-16T17:07:25.321Z,13.80
2023-02-16T17:09:58.112Z,13.80
2023-02-16T17:12:31.055Z,13.80
2023-02-16T17:15:05.971Z,13.60
2023-02-16T17:20:14.726Z,13.70
2023-02-16T17:25:20.712Z,13.70
2023-02-16T17:27:52.696Z,13.60
2023-02-16T17:35:32.098Z,13.60
2023-02-16T17:38:23.714Z,13.50
2023-02-16T17:40:57.438Z,13.50
2023-02-16T17:46:06.170Z,13.50
2023-02-16T17:51:17.440Z,13.50
2023-02-16T17:53:50.607Z,13.40
2023-02-16T17:56:24.999Z,13.40
2023-02-16T17:58:58.153Z,13.50
2023-02-16T18:06:36.931Z,13.40
2023-02-16T18:09:15.993Z,13.40
2023-02-16T18:11:47.844Z,13.40
2023-02-16T18:14:20.650Z,13.50
2023-02-16T18:16:53.223Z,13.60
2023-02-16T18:19:27.406Z,13.50
2023-02-16T18:22:00.608Z,13.60
2023-02-16T18:27:05.521Z,13.50
2023-02-16T18:32:10.554Z,13.40
2023-02-16T18:37:16.191Z,13.50
2023-02-16T18:42:22.473Z,13.40
2023-02-16T18:44:55.272Z,13.40
2023-02-16T18:47:27.643Z,13.30
2023-02-16T18:50:02.912Z,13.40
2023-02-16T18:55:09.776Z,13.40
2023-02-16T18:57:42.162Z,13.30
2023-02-16T19:00:16.753Z,13.40
2023-02-16T19:02:49.838Z,13.40
2023-02-16T19:05:23.069Z,13.30
2023-02-16T19:07:55.942Z,13.30
2023-02-16T19:10:28.252Z,13.30
2023-02-16T19:15:38.949Z,13.40
2023-02-16T19:20:44.587Z,13.30
2023-02-16T19:23:16.432Z,13.30
2023-02-16T19:25:49.216Z,13.30
2023-02-16T19:28:21.288Z,13.30
2023-02-16T19:33:26.417Z,13.30
2023-02-16T19:36:05.824Z,13.30
2023-02-16T19:38:39.436Z,13.30
2023-02-16T19:41:20.845Z,13.30
2023-02-16T19:43:53.143Z,13.30
2023-02-16T19:46:26.629Z,13.30
2023-02-16T19:48:59.851Z,13.30
2023-02-16T19:54:08.308Z,13.30
2023-02-16T19:56:41.597Z,13.20
2023-02-16T19:59:15.732Z,13.20
2023-02-16T20:01:47.620Z,13.20
2023-02-16T20:04:20.743Z,13.20
2023-02-16T20:09:28.572Z,13.30
2023-02-16T20:12:01.112Z,13.30
2023-02-16T20:17:05.983Z,13.20
2023-02-16T20:19:39.462Z,13.30
2023-02-16T20:32:26.665Z,13.40
2023-02-16T20:35:03.192Z,13.40
2023-02-16T20:37:35.707Z,13.40
2023-02-16T20:40:08.845Z,13.40
2023-02-16T20:42:41.144Z,13.50
2023-02-16T20:45:13.334Z,13.50
2023-02-16T20:47:46.611Z,13.50
2023-02-16T20:52:51.380Z,13.40
2023-02-16T20:57:56.982Z,13.40
2023-02-16T21:00:29.744Z,13.50
2023-02-16T21:08:11.582Z,13.50
2023-02-16T21:10:44.607Z,13.30
2023-02-16T21:13:17.495Z,13.40
2023-02-16T21:15:49.407Z,13.50
2023-02-16T21:18:22.356Z,13.50
2023-02-16T21:20:54.699Z,13.50
2023-02-16T21:26:05.081Z,13.50
2023-02-16T21:28:59.186Z,13.50
2023-02-16T21:34:04.931Z,13.50
2023-02-16T21:39:51.208Z,13.50
2023-02-16T21:42:23.522Z,13.60
2023-02-16T21:48:05.721Z,13.60
2023-02-16T21:50:40.873Z,13.50
2023-02-16T21:53:12.983Z,13.50
2023-02-16T21:56:04.943Z,13.60
2023-02-16T21:58:37.093Z,13.60
2023-02-16T22:01:10.030Z,13.50
2023-02-16T22:06:15.214Z,13.50
2023-02-16T22:08:47.496Z,13.50
2023-02-16T22:11:19.498Z,13.50
2023-02-16T22:13:57.744Z,13.50
2023-02-16T22:16:33.064Z,13.60
2023-02-16T22:19:11.440Z,13.60
2023-02-16T22:21:45.477Z,13.50
2023-02-16T22:24:19.581Z,13.60
2023-02-16T22:26:51.541Z,13.60
2023-02-16T22:29:24.263Z,13.60
2023-02-16T22:34:29.545Z,13.60
2023-02-16T22:39:34.492Z,13.60
2023-02-16T22:42:06.810Z,13.60
2023-02-16T22:47:32.908Z,13.60
2023-02-16T22:50:05.939Z,13.60
2023-02-16T22:55:31.265Z,13.70
2023-02-16T22:58:04.571Z,13.60
2023-02-16T23:00:37.400Z,13.50
2023-02-16T23:03:09.289Z,13.60
2023-02-16T23:05:42.068Z,13.60
2023-02-16T23:08:14.112Z,13.60
2023-02-16T23:13:34.197Z,13.60
2023-02-16T23:16:11.985Z,13.50
2023-02-16T23:18:46.556Z,13.50
2023-02-16T23:21:28.376Z,13.50
2023-02-16T23:24:01.360Z,13.50
2023-02-16T23:29:07.701Z,13.50
2023-02-16T23:31:42.068Z,13.40
2023-02-16T23:34:15.489Z,13.50
2023-02-16T23:41:52.810Z,13.40
2023-02-16T23:44:25.860Z,13.40
2023-02-16T23:46:57.774Z,13.40
2023-02-16T23:49:30.662Z,13.40
2023-02-16T23:54:36.640Z,13.40
2023-02-16T23:57:09.650Z,13.50
2023-02-16T23:59:43.562Z,13.40
